Time;durP1;ratioP1;P1;durP2;ratioP2;P2;SDS_P1;SDS_P2;PMS_P1;PMS_P2;Temp;Humidity;BMP_temperature;BMP_pressure;BME280_temperature;BME280_humidity;BME280_pressure;Samples;Min_cycle;Max_cycle;Signal;HPM_P1;HPM_P2
2021/12/29 00:00:27;;;;;;;111.85;100.05;;;9.60;99.90;;;;;;6024653;23;20145;-86
2021/12/29 00:02:54;;;;;;;102.45;83.20;;;9.60;99.90;;;;;;6024339;23;20168;-85
2021/12/29 00:05:43;;;;;;;91.72;66.88;;;9.60;99.90;;;;;;6023961;23;20172;-85
2021/12/29 00:08:16;;;;;;;97.38;78.63;;;9.60;99.90;;;;;;6045021;23;20173;-85
2021/12/29 00:10:46;;;;;;;101.35;84.95;;;9.60;99.90;;;;;;6039275;23;20144;-85
2021/12/29 00:13:19;;;;;;;101.85;79.93;;;9.60;99.90;;;;;;6015164;23;20230;-85
2021/12/29 00:15:47;;;;;;;100.90;82.82;;;9.60;99.90;;;;;;6013082;23;20149;-85
2021/12/29 00:18:22;;;;;;;97.25;67.88;;;9.60;99.90;;;;;;6039461;23;20195;-85
2021/12/29 00:20:48;;;;;;;106.38;77.85;;;9.60;99.90;;;;;;6039861;23;20470;-85
2021/12/29 00:23:14;;;;;;;99.33;83.83;;;9.60;99.90;;;;;;6014341;23;20156;-85
2021/12/29 00:25:42;;;;;;;99.13;83.30;;;9.60;99.90;;;;;;6040132;23;20739;-85
2021/12/29 00:28:08;;;;;;;99.88;84.95;;;9.60;99.90;;;;;;6037621;23;20428;-84
2021/12/29 00:30:37;;;;;;;100.33;79.70;;;9.60;99.90;;;;;;6013132;23;20153;-85
2021/12/29 00:33:03;;;;;;;104.72;89.20;;;9.60;99.90;;;;;;6014276;23;20715;-85
2021/12/29 00:35:29;;;;;;;99.57;72.27;;;9.60;99.90;;;;;;6014491;23;20152;-84
2021/12/29 00:38:02;;;;;;;102.53;82.82;;;9.60;99.90;;;;;;6040391;23;20766;-85
2021/12/29 00:40:33;;;;;;;104.18;75.70;;;9.60;99.90;;;;;;6015946;23;20184;-85
2021/12/29 00:43:08;;;;;;;96.22;77.60;;;9.60;99.90;;;;;;6016949;23;20153;-84
2021/12/29 00:45:47;;;;;;;98.95;83.18;;;9.60;99.90;;;;;;6017134;23;20148;-86
2021/12/29 01:03:00;;;;;;;;;;;;;;;;;;;;;
2021/12/29 01:06:29;;;;;;;;;;;;;;;;;;;;;
2021/12/29 01:13:29;;;;;;;;;;;;;;;;;;;;;
2021/12/29 01:31:01;;;;;;;94.43;64.68;;;9.60;99.90;;;;;;5960333;24;20525;-85
2021/12/29 02:27:47;;;;;;;;;;;;;;;;;;;;;
2021/12/29 02:38:12;;;;;;;;;;;;;;;;;;;;;
2021/12/29 02:41:46;;;;;;;89.00;56.40;;;9.50;99.90;;;;;;6030132;23;20177;-84
2021/12/29 02:52:10;;;;;;;;;;;;;;;;;;;;;
2021/12/29 02:55:18;;;;;;;89.63;58.17;;;9.50;99.90;;;;;;6096675;23;20228;-84
2021/12/29 02:58:28;;;;;;;;;;;;;;;;;;;;;
2021/12/29 03:05:46;;;;;;;;;;;;;;;;;;;;;
2021/12/29 03:12:30;;;;;;;91.30;61.20;;;9.50;99.90;;;;;;6040412;23;20180;-84
2021/12/29 03:34:49;;;;;;;;;;;;;;;;;;;;;
2021/12/29 03:41:25;;;;;;;102.78;87.53;;;9.40;99.90;;;;;;6102305;23;20206;-84
2021/12/29 03:50:07;;;;;;;;;;;;;;;;;;;;;
2021/12/29 03:56:48;;;;;;;100.07;77.68;;;9.40;99.90;;;;;;6033688;23;20148;-85
2021/12/29 03:59:43;;;;;;;83.90;45.03;;;9.40;99.90;;;;;;6104677;23;20223;-84
2021/12/29 04:03:10;;;;;;;85.78;48.35;;;9.30;99.90;;;;;;6099932;23;20155;-85
2021/12/29 04:06:24;;;;;;;96.38;76.53;;;9.30;99.90;;;;;;6120976;23;20189;-84
2021/12/29 04:09:21;;;;;;;81.55;41.97;;;9.40;99.90;;;;;;6151432;23;20199;-85
2021/12/29 04:12:30;;;;;;;;;;;;;;;;;;;;;
2021/12/29 04:15:15;;;;;;;89.65;56.70;;;9.40;99.90;;;;;;6101611;23;20197;-84
2021/12/29 04:17:50;;;;;;;87.75;52.45;;;9.40;99.90;;;;;;6100459;23;20147;-85
2021/12/29 04:23:09;;;;;;;87.55;56.28;;;9.40;99.90;;;;;;6100400;23;20211;-84
2021/12/29 04:25:39;;;;;;;86.93;51.92;;;9.30;99.90;;;;;;6096778;23;20148;-84
2021/12/29 04:28:13;;;;;;;87.45;59.35;;;9.40;99.90;;;;;;6098351;23;20175;-84
2021/12/29 04:30:42;;;;;;;91.75;66.13;;;9.30;99.90;;;;;;6099361;23;20203;-83
2021/12/29 04:33:10;;;;;;;87.57;56.85;;;9.30;99.90;;;;;;6098895;23;20178;-84
2021/12/29 04:35:40;;;;;;;89.35;61.53;;;9.30;99.90;;;;;;6098325;23;20139;-84
2021/12/29 04:38:06;;;;;;;89.13;61.42;;;9.30;99.90;;;;;;6099119;23;20621;-84
2021/12/29 04:40:33;;;;;;;101.85;78.78;;;9.30;99.90;;;;;;6097812;23;20151;-85
2021/12/29 04:43:05;;;;;;;87.50;57.45;;;9.30;99.90;;;;;;6097475;23;20151;-84
2021/12/29 04:45:31;;;;;;;96.00;69.15;;;9.30;99.90;;;;;;6099007;23;20166;-84
2021/12/29 04:47:58;;;;;;;97.20;76.13;;;9.30;99.90;;;;;;6097555;23;20175;-83
2021/12/29 04:50:28;;;;;;;91.93;69.30;;;9.20;99.90;;;;;;6098393;23;20182;-84
2021/12/29 04:52:59;;;;;;;88.40;57.42;;;9.30;99.90;;;;;;6095837;23;20608;-84
2021/12/29 04:55:29;;;;;;;88.80;55.15;;;9.30;99.90;;;;;;6098001;23;20151;-84
2021/12/29 04:57:57;;;;;;;97.40;68.05;;;9.30;99.90;;;;;;6075060;23;20170;-84
2021/12/29 05:00:24;;;;;;;89.25;60.72;;;9.30;99.90;;;;;;6099908;23;20139;-84
2021/12/29 05:02:52;;;;;;;91.70;62.88;;;9.30;99.90;;;;;;6074480;23;20147;-84
2021/12/29 05:05:38;;;;;;;92.05;63.47;;;9.30;99.90;;;;;;6098539;23;20286;-84
2021/12/29 05:10:50;;;;;;;96.22;66.40;;;9.30;99.90;;;;;;6100573;23;20138;-84
2021/12/29 05:13:16;;;;;;;90.70;61.78;;;9.30;99.90;;;;;;6099332;23;20288;-84
2021/12/29 05:15:42;;;;;;;93.20;59.10;;;9.30;99.90;;;;;;6075083;23;20601;-85
2021/12/29 05:18:08;;;;;;;88.67;55.03;;;9.40;99.90;;;;;;6100333;23;20201;-84
2021/12/29 05:20:34;;;;;;;92.50;66.20;;;9.40;99.90;;;;;;6100430;23;20201;-85
2021/12/29 05:23:02;;;;;;;95.70;62.53;;;9.40;99.90;;;;;;6099529;23;20596;-84
2021/12/29 05:25:28;;;;;;;88.45;55.70;;;9.40;99.90;;;;;;6101088;23;20152;-85
2021/12/29 05:27:55;;;;;;;98.47;67.33;;;9.40;99.90;;;;;;6100213;23;20735;-84
2021/12/29 05:30:23;;;;;;;92.78;65.53;;;9.40;99.90;;;;;;6075040;23;20433;-85
2021/12/29 05:32:49;;;;;;;90.45;56.88;;;9.40;99.90;;;;;;6100167;23;20154;-84
2021/12/29 05:35:16;;;;;;;87.50;54.28;;;9.30;99.90;;;;;;6101094;23;20168;-84
2021/12/29 05:37:43;;;;;;;96.32;65.90;;;9.40;99.90;;;;;;6099544;23;20155;-84
2021/12/29 05:40:18;;;;;;;93.70;70.47;;;9.30;99.90;;;;;;6098758;23;20162;-84
2021/12/29 05:42:51;;;;;;;94.75;74.35;;;9.30;99.90;;;;;;6098740;23;20153;-84
2021/12/29 05:45:18;;;;;;;97.13;77.43;;;9.40;99.90;;;;;;6073750;23;20179;-84
2021/12/29 05:47:44;;;;;;;99.07;77.45;;;9.40;99.90;;;;;;6097858;23;20175;-84
2021/12/29 05:50:16;;;;;;;100.43;89.28;;;9.40;99.90;;;;;;6099313;23;20514;-84
2021/12/29 05:52:42;;;;;;;96.78;73.30;;;9.30;99.90;;;;;;6099859;23;20132;-84
2021/12/29 05:55:11;;;;;;;113.67;101.47;;;9.30;99.90;;;;;;6099259;23;20159;-84
2021/12/29 05:57:38;;;;;;;102.43;87.75;;;9.30;99.90;;;;;;6096738;23;20384;-86
2021/12/29 06:00:13;;;;;;;96.82;78.57;;;9.30;99.90;;;;;;6098821;23;20149;-84
2021/12/29 06:02:39;;;;;;;95.72;73.32;;;9.30;99.90;;;;;;6097740;23;20223;-83
2021/12/29 06:05:15;;;;;;;99.90;66.90;;;9.30;99.90;;;;;;6097972;23;20159;-84
2021/12/29 06:07:40;;;;;;;98.28;81.47;;;9.30;99.90;;;;;;6099270;23;20500;-84
2021/12/29 06:10:09;;;;;;;100.43;82.43;;;9.30;99.90;;;;;;6098333;23;20174;-83
2021/12/29 06:12:36;;;;;;;96.63;73.30;;;9.30;99.90;;;;;;6098083;23;20218;-84
2021/12/29 06:15:04;;;;;;;100.20;84.32;;;9.30;99.90;;;;;;6099727;23;20163;-84
2021/12/29 06:17:33;;;;;;;95.35;72.70;;;9.30;99.90;;;;;;6100345;23;20146;-84
2021/12/29 06:19:58;;;;;;;99.13;84.78;;;9.30;99.90;;;;;;6099352;23;20148;-84
2021/12/29 06:22:25;;;;;;;98.47;81.23;;;9.30;99.90;;;;;;6100602;23;20161;-84
2021/12/29 06:24:53;;;;;;;99.28;86.70;;;9.30;99.90;;;;;;6098541;23;20191;-84
2021/12/29 06:27:23;;;;;;;100.13;82.35;;;9.30;99.90;;;;;;6100935;23;20166;-84
2021/12/29 06:29:49;;;;;;;101.10;89.35;;;9.30;99.90;;;;;;6100295;23;20139;-84
2021/12/29 06:32:15;;;;;;;119.97;106.97;;;9.30;99.90;;;;;;6100383;23;20148;-84
2021/12/29 06:34:41;;;;;;;108.43;97.05;;;9.30;99.90;;;;;;6099393;23;20612;-84
2021/12/29 06:37:09;;;;;;;99.67;88.57;;;9.30;99.90;;;;;;6076410;23;20177;-84
2021/12/29 06:39:36;;;;;;;116.57;104.43;;;9.30;99.90;;;;;;6099071;23;20155;-84
2021/12/29 06:42:03;;;;;;;109.88;98.35;;;9.30;99.90;;;;;;6101383;23;20143;-84
2021/12/29 06:44:29;;;;;;;142.70;129.63;;;9.30;99.90;;;;;;6098506;23;20490;-84
2021/12/29 06:46:55;;;;;;;137.50;124.57;;;9.30;99.90;;;;;;6098780;23;20247;-84
2021/12/29 06:49:21;;;;;;;137.90;125.33;;;9.30;99.90;;;;;;6098599;23;20485;-84
2021/12/29 06:51:48;;;;;;;137.35;124.70;;;9.30;99.90;;;;;;6098682;23;20246;-84
2021/12/29 06:54:17;;;;;;;142.15;129.60;;;9.40;99.90;;;;;;6096806;23;20171;-83
2021/12/29 06:56:43;;;;;;;125.78;113.72;;;9.30;99.90;;;;;;6099072;23;20132;-83
2021/12/29 06:59:11;;;;;;;134.53;121.97;;;9.40;99.90;;;;;;6099760;23;20573;-84
2021/12/29 07:01:37;;;;;;;138.07;125.53;;;9.40;99.90;;;;;;6097767;23;20384;-84
2021/12/29 07:04:03;;;;;;;133.80;121.43;;;9.40;99.90;;;;;;6100480;23;20253;-84
2021/12/29 07:06:32;;;;;;;114.20;102.13;;;9.40;99.90;;;;;;6098441;23;20218;-84
2021/12/29 07:08:58;;;;;;;127.35;115.13;;;9.40;99.90;;;;;;6100706;23;20163;-84
2021/12/29 07:11:23;;;;;;;114.87;103.27;;;9.40;99.90;;;;;;6100294;23;20154;-83
2021/12/29 07:13:49;;;;;;;114.23;102.60;;;9.40;99.90;;;;;;6100072;23;20166;-84
2021/12/29 07:16:15;;;;;;;97.90;78.67;;;9.40;99.90;;;;;;6097610;23;20179;-83
2021/12/29 07:18:41;;;;;;;99.87;80.60;;;9.40;99.90;;;;;;6097003;23;20398;-83
2021/12/29 07:21:06;;;;;;;92.23;66.67;;;9.40;99.90;;;;;;6098750;23;20155;-84
2021/12/29 07:23:32;;;;;;;97.70;79.23;;;9.40;99.90;;;;;;6097231;23;20171;-83
2021/12/29 07:25:58;;;;;;;114.00;100.27;;;9.40;99.90;;;;;;6098605;23;20560;-84
2021/12/29 07:28:24;;;;;;;104.43;91.67;;;9.30;99.90;;;;;;6098918;23;20439;-83
2021/12/29 07:30:49;;;;;;;106.17;94.73;;;9.30;99.90;;;;;;6099723;23;20207;-84
2021/12/29 07:33:15;;;;;;;122.00;109.90;;;9.30;99.90;;;;;;6099159;23;20146;-84
2021/12/29 07:35:41;;;;;;;121.77;109.60;;;9.30;99.90;;;;;;6098692;23;20585;-84
2021/12/29 07:38:06;;;;;;;125.60;112.90;;;9.30;99.90;;;;;;6099339;23;20143;-84
2021/12/29 07:40:34;;;;;;;106.07;87.03;;;9.30;99.90;;;;;;6099237;23;20215;-84
2021/12/29 07:43:01;;;;;;;108.80;97.20;;;9.30;99.90;;;;;;6073239;23;20768;-83
2021/12/29 07:45:27;;;;;;;121.03;108.93;;;9.20;99.90;;;;;;6099158;23;20193;-84
2021/12/29 07:47:54;;;;;;;118.15;106.38;;;9.10;99.90;;;;;;6097157;23;20179;-84
2021/12/29 07:50:20;;;;;;;113.35;100.68;;;9.20;99.90;;;;;;6098389;23;20156;-84
2021/12/29 07:52:48;;;;;;;127.18;115.15;;;9.20;99.90;;;;;;6098702;23;20508;-84
2021/12/29 07:55:18;;;;;;;121.15;109.25;;;9.10;99.90;;;;;;6098933;23;20159;-83
2021/12/29 07:57:45;;;;;;;112.53;100.97;;;9.20;99.90;;;;;;6071456;23;20524;-83
2021/12/29 08:00:12;;;;;;;106.70;95.28;;;9.20;99.90;;;;;;6095207;23;20183;-84
2021/12/29 08:02:43;;;;;;;97.93;78.68;;;9.20;99.90;;;;;;6097420;23;20181;-84
2021/12/29 08:05:10;;;;;;;92.88;65.93;;;9.20;99.90;;;;;;6097349;23;20502;-83
2021/12/29 08:07:36;;;;;;;97.85;79.45;;;9.20;99.90;;;;;;6097946;23;20148;-84
2021/12/29 08:10:03;;;;;;;95.45;62.05;;;9.20;99.90;;;;;;6071820;23;20148;-84
2021/12/29 08:12:29;;;;;;;89.30;58.85;;;9.30;99.90;;;;;;6097402;23;20150;-84
2021/12/29 08:14:55;;;;;;;97.13;76.17;;;9.20;99.90;;;;;;6096158;23;20175;-84
2021/12/29 08:17:21;;;;;;;96.97;83.47;;;9.20;99.90;;;;;;6097487;23;20140;-84
2021/12/29 08:19:57;;;;;;;94.00;71.67;;;9.20;99.90;;;;;;6098488;23;20149;-84
2021/12/29 08:22:22;;;;;;;86.88;51.95;;;9.20;99.90;;;;;;6073048;23;20148;-84
2021/12/29 08:24:48;;;;;;;93.37;60.60;;;9.20;99.90;;;;;;6072128;23;20167;-84
2021/12/29 08:27:13;;;;;;;88.43;53.33;;;9.30;99.90;;;;;;6098275;23;20155;-84
2021/12/29 08:29:41;;;;;;;86.20;48.40;;;9.20;99.90;;;;;;6098130;23;20174;-84
2021/12/29 08:32:06;;;;;;;85.22;46.83;;;9.30;99.90;;;;;;6099554;23;20143;-83
2021/12/29 08:34:32;;;;;;;79.80;34.60;;;9.30;99.90;;;;;;6098303;23;20174;-84
2021/12/29 08:36:58;;;;;;;80.00;32.13;;;9.30;99.90;;;;;;6097431;23;20593;-84
2021/12/29 08:39:25;;;;;;;81.07;32.67;;;9.40;99.90;;;;;;6097429;23;20238;-84
2021/12/29 08:41:51;;;;;;;82.78;36.20;;;9.40;99.90;;;;;;6075137;23;20219;-85
2021/12/29 08:44:17;;;;;;;79.00;32.63;;;9.40;99.90;;;;;;6101084;23;20198;-85
2021/12/29 08:46:46;;;;;;;77.97;29.40;;;9.40;99.90;;;;;;6075915;23;20604;-85
2021/12/29 08:49:12;;;;;;;79.90;28.02;;;9.40;99.90;;;;;;6100658;23;20710;-85
2021/12/29 08:51:44;;;;;;;80.88;35.40;;;9.40;99.90;;;;;;6100035;23;20186;-85
2021/12/29 08:54:52;;;;;;;80.03;29.02;;;9.40;99.90;;;;;;6110869;23;20202;-84
2021/12/29 08:57:39;;;;;;;79.35;27.75;;;9.40;99.90;;;;;;6096909;23;20158;-83
2021/12/29 09:00:08;;;;;;;83.70;32.50;;;9.40;99.90;;;;;;6104455;23;20150;-84
2021/12/29 09:02:36;;;;;;;82.97;39.75;;;9.50;99.90;;;;;;6130711;23;20181;-85
2021/12/29 09:05:03;;;;;;;85.63;41.70;;;9.50;99.90;;;;;;6130939;23;20245;-85
2021/12/29 09:07:29;;;;;;;82.57;38.42;;;9.50;99.90;;;;;;6104620;23;20147;-84
2021/12/29 09:09:55;;;;;;;88.30;53.27;;;9.40;99.90;;;;;;6131739;23;20146;-85
2021/12/29 09:12:21;;;;;;;98.47;75.77;;;9.50;99.90;;;;;;6131814;23;20143;-84
2021/12/29 09:14:46;;;;;;;96.50;81.27;;;9.50;99.90;;;;;;6130512;23;20285;-85
2021/12/29 09:17:12;;;;;;;97.00;64.00;;;9.50;99.90;;;;;;6130455;23;20146;-85
2021/12/29 09:19:41;;;;;;;98.20;82.32;;;9.50;99.90;;;;;;6105814;23;20486;-85
2021/12/29 09:22:09;;;;;;;109.28;97.93;;;9.60;99.90;;;;;;6104789;23;20228;-85
2021/12/29 09:24:35;;;;;;;112.60;100.95;;;9.60;99.90;;;;;;6131004;23;20236;-85
2021/12/29 09:27:04;;;;;;;101.03;90.00;;;9.60;99.90;;;;;;6131211;23;20576;-85
2021/12/29 09:29:32;;;;;;;98.93;86.93;;;9.60;99.90;;;;;;6130526;23;20217;-85
2021/12/29 09:32:04;;;;;;;116.10;104.63;;;9.60;99.90;;;;;;6104988;23;20206;-85
2021/12/29 09:34:32;;;;;;;111.93;100.25;;;9.60;99.90;;;;;;6130928;23;20623;-85
2021/12/29 09:36:59;;;;;;;110.88;99.53;;;9.60;99.90;;;;;;6104648;23;20151;-85
2021/12/29 09:39:25;;;;;;;113.78;102.35;;;9.70;99.90;;;;;;6104556;23;20161;-85
2021/12/29 09:41:51;;;;;;;114.55;103.10;;;9.70;99.90;;;;;;6128535;23;20150;-85
2021/12/29 09:44:17;;;;;;;123.47;111.78;;;9.70;99.90;;;;;;6128908;23;20500;-85
2021/12/29 09:46:43;;;;;;;115.77;104.13;;;9.70;99.90;;;;;;6128444;23;20150;-84
2021/12/29 09:49:09;;;;;;;126.43;114.33;;;9.70;99.90;;;;;;6129539;23;20410;-85
2021/12/29 09:51:35;;;;;;;130.90;118.87;;;9.70;99.90;;;;;;6103262;23;20383;-84
2021/12/29 09:54:02;;;;;;;116.90;105.13;;;9.70;99.90;;;;;;6101827;23;20481;-84
2021/12/29 09:56:28;;;;;;;118.50;106.68;;;9.70;99.90;;;;;;6102925;23;20257;-83
2021/12/29 09:58:55;;;;;;;117.10;105.40;;;9.80;99.90;;;;;;6128084;23;20147;-83
2021/12/29 10:01:21;;;;;;;117.40;105.25;;;9.80;99.90;;;;;;6102617;23;20417;-84
2021/12/29 10:03:47;;;;;;;131.68;119.15;;;9.80;99.90;;;;;;6102722;23;20177;-84
2021/12/29 10:06:15;;;;;;;125.65;113.53;;;9.70;99.90;;;;;;6128366;23;20147;-84
2021/12/29 10:08:49;;;;;;;135.23;122.75;;;9.80;99.90;;;;;;6102466;23;20182;-83
2021/12/29 10:11:28;;;;;;;117.95;105.82;;;9.80;99.90;;;;;;6103265;23;20150;-85
2021/12/29 10:13:55;;;;;;;123.32;111.30;;;9.90;99.90;;;;;;6129389;23;20662;-84
2021/12/29 10:16:24;;;;;;;115.05;103.25;;;9.90;99.90;;;;;;6104310;23;20512;-84
2021/12/29 10:18:58;;;;;;;117.85;105.55;;;9.90;99.90;;;;;;6103456;23;20643;-84
2021/12/29 10:21:27;;;;;;;124.93;112.25;;;10.00;99.90;;;;;;6128120;23;20135;-84
2021/12/29 10:23:55;;;;;;;131.00;118.63;;;10.10;99.90;;;;;;6102207;23;20251;-84
2021/12/29 10:26:24;;;;;;;122.15;110.50;;;10.20;99.90;;;;;;6103389;23;20157;-86
2021/12/29 10:28:56;;;;;;;120.20;107.95;;;10.30;99.90;;;;;;6129708;23;20155;-85
2021/12/29 10:31:29;;;;;;;143.15;130.48;;;10.30;99.90;;;;;;6102897;23;20161;-84
2021/12/29 10:33:58;;;;;;;125.78;113.50;;;10.40;99.90;;;;;;6102688;23;20249;-83
2021/12/29 10:36:46;;;;;;;116.32;104.28;;;10.50;99.90;;;;;;6103770;23;20200;-85
2021/12/29 10:39:34;;;;;;;121.72;109.75;;;10.60;99.90;;;;;;6102358;23;20234;-84
2021/12/29 10:42:08;;;;;;;123.18;110.97;;;10.80;99.90;;;;;;6102487;23;20146;-84
2021/12/29 10:44:42;;;;;;;87.35;50.17;;;11.10;99.90;;;;;;6102283;23;20563;-84
2021/12/29 10:47:25;;;;;;;76.40;25.65;;;11.20;99.90;;;;;;6102416;23;20576;-84
2021/12/29 10:49:57;;;;;;;76.70;24.98;;;11.40;99.90;;;;;;6128163;23;20147;-85
2021/12/29 10:52:32;;;;;;;89.80;56.70;;;11.40;99.90;;;;;;6102356;23;20151;-84
2021/12/29 10:54:58;;;;;;;90.45;59.10;;;11.40;99.90;;;;;;6102156;23;20227;-84
2021/12/29 10:57:24;;;;;;;88.93;56.42;;;11.40;99.90;;;;;;6101915;23;20147;-84
2021/12/29 10:59:57;;;;;;;89.25;56.38;;;11.10;99.90;;;;;;6102463;23;20150;-84
2021/12/29 11:02:29;;;;;;;85.18;43.92;;;10.90;99.90;;;;;;6128184;23;20122;-84
2021/12/29 11:05:03;;;;;;;86.47;46.60;;;10.90;99.90;;;;;;6130536;23;20163;-84
2021/12/29 11:07:31;;;;;;;84.97;47.55;;;10.80;99.90;;;;;;6104617;23;20143;-85
2021/12/29 11:10:17;;;;;;;88.82;45.45;;;10.90;99.90;;;;;;6103845;23;20224;-84
2021/12/29 11:12:44;;;;;;;91.35;55.00;;;10.90;99.90;;;;;;6105002;23;20142;-85
2021/12/29 11:15:22;;;;;;;82.88;43.03;;;10.80;99.90;;;;;;6131796;23;20158;-85
2021/12/29 11:17:49;;;;;;;84.47;41.72;;;11.00;99.90;;;;;;6130040;23;20146;-85
2021/12/29 11:20:20;;;;;;;87.00;47.13;;;11.10;99.90;;;;;;6131963;23;20181;-85
2021/12/29 11:22:46;;;;;;;85.47;47.00;;;11.10;99.90;;;;;;6104469;23;20175;-85
2021/12/29 11:25:12;;;;;;;87.37;48.20;;;11.20;99.90;;;;;;6104082;23;20224;-85
2021/12/29 11:27:38;;;;;;;84.77;46.47;;;11.30;99.90;;;;;;6104092;23;20379;-85
2021/12/29 11:30:13;;;;;;;87.15;51.10;;;11.20;99.90;;;;;;6104561;23;20375;-85
2021/12/29 11:32:41;;;;;;;82.63;40.40;;;11.30;99.90;;;;;;6104510;23;20492;-85
2021/12/29 11:35:27;;;;;;;76.53;25.83;;;11.20;99.90;;;;;;6129761;23;20233;-85
2021/12/29 11:37:56;;;;;;;76.63;24.63;;;11.30;99.90;;;;;;6103657;23;20181;-85
2021/12/29 11:40:25;;;;;;;82.13;47.83;;;11.40;99.90;;;;;;6104162;23;20473;-85
2021/12/29 11:42:55;;;;;;;84.78;47.90;;;11.30;99.90;;;;;;6103283;23;20596;-85
2021/12/29 11:45:22;;;;;;;87.63;62.42;;;11.30;99.90;;;;;;6129951;23;20170;-85
2021/12/29 11:47:49;;;;;;;87.18;55.45;;;11.10;99.90;;;;;;6129753;23;20550;-85
2021/12/29 11:50:28;;;;;;;84.78;45.70;;;11.00;99.90;;;;;;6128664;23;20150;-85
2021/12/29 11:52:58;;;;;;;75.18;29.27;;;11.00;99.90;;;;;;6129886;23;20137;-84
2021/12/29 11:55:34;;;;;;;81.10;36.38;;;10.90;99.90;;;;;;6129496;23;20158;-85
2021/12/29 11:58:14;;;;;;;80.15;42.25;;;11.00;99.90;;;;;;6129220;23;20188;-85
2021/12/29 12:00:42;;;;;;;83.18;42.90;;;11.10;99.90;;;;;;6130067;23;20143;-85
2021/12/29 12:03:11;;;;;;;84.50;52.45;;;11.10;99.90;;;;;;6103842;23;20535;-85
2021/12/29 12:05:41;;;;;;;84.25;47.33;;;11.10;99.90;;;;;;6128507;23;20588;-85
2021/12/29 12:08:13;;;;;;;84.40;51.75;;;10.90;99.90;;;;;;6104637;23;20238;-85
2021/12/29 12:10:41;;;;;;;77.45;35.85;;;10.80;99.90;;;;;;6104258;23;20645;-85
2021/12/29 12:13:30;;;;;;;75.47;28.52;;;10.80;99.90;;;;;;6104205;23;20193;-85
2021/12/29 12:16:12;;;;;;;79.53;39.30;;;10.70;99.90;;;;;;6103639;23;20166;-85
2021/12/29 12:18:46;;;;;;;82.63;47.03;;;10.70;99.90;;;;;;6103539;23;20147;-85
2021/12/29 12:21:29;;;;;;;80.68;42.28;;;10.70;99.90;;;;;;6129071;23;20169;-85
2021/12/29 12:24:16;;;;;;;78.57;39.08;;;10.70;99.90;;;;;;6104383;23;20174;-85
2021/12/29 12:26:50;;;;;;;78.00;34.10;;;10.80;99.90;;;;;;6104867;23;20159;-85
2021/12/29 12:29:16;;;;;;;84.38;51.30;;;10.80;99.90;;;;;;6103417;23;20190;-85
2021/12/29 12:31:46;;;;;;;76.60;31.42;;;10.80;99.90;;;;;;6104502;23;20174;-85
2021/12/29 12:34:15;;;;;;;77.07;27.40;;;10.70;99.90;;;;;;6102698;23;20217;-85
2021/12/29 12:36:42;;;;;;;76.03;28.92;;;10.80;99.90;;;;;;6102767;23;20230;-85
2021/12/29 12:39:21;;;;;;;75.13;27.33;;;10.70;99.90;;;;;;6102565;23;20159;-84
2021/12/29 12:41:52;;;;;;;74.72;28.33;;;10.70;99.90;;;;;;6104076;23;20169;-84
2021/12/29 12:44:30;;;;;;;75.35;27.58;;;10.70;99.90;;;;;;6104225;23;20246;-85
2021/12/29 12:47:11;;;;;;;74.43;25.35;;;10.70;99.90;;;;;;6102560;23;20483;-84
2021/12/29 12:50:08;;;;;;;;;;;;;;;;;;;;;
2021/12/29 12:52:55;;;;;;;77.60;27.60;;;10.60;99.90;;;;;;6125723;23;20193;-86
2021/12/29 12:55:28;;;;;;;77.07;20.92;;;10.60;99.90;;;;;;6100190;23;20193;-87
2021/12/29 12:58:12;;;;;;;72.72;19.80;;;10.60;99.90;;;;;;6100446;23;20179;-86
2021/12/29 13:00:53;;;;;;;74.03;24.30;;;10.60;99.90;;;;;;6102540;23;20472;-86
2021/12/29 13:03:31;;;;;;;80.57;36.05;;;10.60;99.90;;;;;;6097082;23;20191;-86
2021/12/29 13:05:58;;;;;;;77.45;32.03;;;10.60;99.90;;;;;;6101758;23;20162;-86
2021/12/29 13:08:36;;;;;;;79.57;35.35;;;10.70;99.90;;;;;;6129315;23;20171;-86
2021/12/29 13:11:17;;;;;;;76.97;33.38;;;10.70;99.90;;;;;;6105245;23;20147;-86
2021/12/29 13:13:45;;;;;;;78.25;33.45;;;10.70;99.90;;;;;;6130443;23;20671;-87
2021/12/29 13:19:08;;;;;;;87.20;60.40;;;10.60;99.90;;;;;;6108277;23;20147;-86
2021/12/29 13:21:36;;;;;;;88.45;64.90;;;10.40;99.90;;;;;;6106012;23;20229;-86
2021/12/29 13:24:05;;;;;;;85.50;56.78;;;10.40;99.90;;;;;;6133152;23;20166;-86
2021/12/29 13:26:38;;;;;;;84.95;56.95;;;10.30;99.90;;;;;;6107291;23;20182;-85
2021/12/29 13:29:14;;;;;;;74.75;25.95;;;10.40;99.90;;;;;;6132438;23;20163;-86
2021/12/29 13:31:43;;;;;;;75.70;30.50;;;10.20;99.90;;;;;;6107944;23;20641;-86
2021/12/29 13:34:12;;;;;;;73.60;22.55;;;10.20;99.90;;;;;;6131247;23;20162;-87
2021/12/29 13:36:41;;;;;;;74.57;23.05;;;10.20;99.90;;;;;;6104406;23;20147;-86
2021/12/29 13:39:20;;;;;;;;;;;;;;;;;;;;;
2021/12/29 13:41:54;;;;;;;74.35;22.10;;;10.20;99.90;;;;;;6131457;23;20169;-86
2021/12/29 13:44:21;;;;;;;83.82;41.83;;;10.10;99.90;;;;;;6127968;23;20201;-85
2021/12/29 13:46:48;;;;;;;82.55;40.92;;;10.10;99.90;;;;;;6124461;23;20158;-83
2021/12/29 13:49:18;;;;;;;84.95;48.65;;;10.10;99.90;;;;;;6129583;23;20198;-86
2021/12/29 13:51:48;;;;;;;88.78;65.53;;;10.10;99.90;;;;;;6132258;23;20131;-85
2021/12/29 13:54:19;;;;;;;137.18;124.30;;;10.10;99.90;;;;;;6132118;23;20167;-85
2021/12/29 13:56:59;;;;;;;130.13;118.10;;;10.10;99.90;;;;;;6131626;23;20143;-85
2021/12/29 13:59:29;;;;;;;140.50;128.35;;;10.10;99.90;;;;;;6131198;23;20579;-87
2021/12/29 14:02:10;;;;;;;156.60;143.43;;;10.00;99.90;;;;;;6104138;23;20146;-85
2021/12/29 14:04:44;;;;;;;156.27;143.02;;;10.00;99.90;;;;;;6130287;23;20162;-87
2021/12/29 14:07:12;;;;;;;151.30;138.32;;;10.00;99.90;;;;;;6130440;23;20150;-87
2021/12/29 14:09:41;;;;;;;147.88;135.18;;;10.00;99.90;;;;;;6103848;23;20197;-87
2021/12/29 14:12:14;;;;;;;140.40;128.23;;;10.00;99.90;;;;;;6129414;23;20242;-87
2021/12/29 14:14:47;;;;;;;137.68;125.57;;;10.00;99.90;;;;;;6103460;23;20177;-88
2021/12/29 14:17:23;;;;;;;129.52;117.72;;;10.00;99.90;;;;;;6102507;23;20220;-88
2021/12/29 14:19:50;;;;;;;139.45;127.45;;;10.00;99.90;;;;;;6103275;23;20158;-87
2021/12/29 14:22:29;;;;;;;99.38;88.68;;;10.00;99.90;;;;;;6101537;23;20190;-87
2021/12/29 14:24:55;;;;;;;95.88;73.80;;;9.90;99.90;;;;;;6102505;23;20239;-87
2021/12/29 14:27:25;;;;;;;88.18;62.13;;;9.90;99.90;;;;;;6102520;23;20578;-87
2021/12/29 14:29:54;;;;;;;94.82;62.83;;;9.90;99.90;;;;;;6104254;23;20227;-87
2021/12/29 14:32:30;;;;;;;92.93;67.50;;;10.00;99.90;;;;;;6103417;23;20146;-87
2021/12/29 14:34:56;;;;;;;88.22;53.60;;;10.00;99.90;;;;;;6100680;23;20171;-86
2021/12/29 14:37:27;;;;;;;84.07;48.83;;;9.90;99.90;;;;;;6101301;23;20139;-87
2021/12/29 14:39:59;;;;;;;91.15;58.40;;;9.90;99.90;;;;;;6126280;23;20557;-86
2021/12/29 14:42:35;;;;;;;94.07;76.03;;;9.80;99.90;;;;;;6102300;23;20186;-86
2021/12/29 14:45:15;;;;;;;110.47;97.88;;;9.80;99.90;;;;;;6104923;23;20175;-87
2021/12/29 14:47:51;;;;;;;133.48;120.35;;;9.70;99.90;;;;;;6105365;23;20153;-87
2021/12/29 14:50:21;;;;;;;115.13;103.47;;;9.70;99.90;;;;;;6130535;23;20185;-87
2021/12/29 14:52:50;;;;;;;134.68;121.93;;;9.70;99.90;;;;;;6105379;23;20219;-87
2021/12/29 14:55:36;;;;;;;163.85;149.93;;;9.70;99.90;;;;;;6130515;23;20170;-88
2021/12/29 14:58:13;;;;;;;159.73;146.10;;;9.70;99.90;;;;;;6131105;23;20123;-87
2021/12/29 15:00:41;;;;;;;151.68;138.80;;;9.70;99.90;;;;;;6105615;23;20646;-87
2021/12/29 15:03:57;;;;;;;171.95;158.38;;;9.70;99.90;;;;;;6106822;23;20147;-88
2021/12/29 15:09:44;;;;;;;168.13;154.85;;;9.70;99.90;;;;;;6133616;23;20469;-88
2021/12/29 15:12:27;;;;;;;163.38;150.43;;;9.60;99.90;;;;;;6102388;23;20147;-87
2021/12/29 15:15:33;;;;;;;168.30;154.95;;;9.60;99.90;;;;;;6105730;23;20612;-88
2021/12/29 15:18:47;;;;;;;168.63;154.60;;;9.70;99.90;;;;;;6106678;23;20212;-86
2021/12/29 15:21:40;;;;;;;153.93;141.00;;;9.70;99.90;;;;;;5991640;23;20670;-87
2021/12/29 15:24:14;;;;;;;169.10;155.80;;;9.70;99.90;;;;;;6054605;22;20206;-87
2021/12/29 15:26:40;;;;;;;169.18;155.98;;;9.70;99.90;;;;;;6107800;23;20151;-88
2021/12/29 15:30:00;;;;;;;;;;;;;;;;;;;;;
2021/12/29 15:33:01;;;;;;;161.75;148.38;;;9.70;99.90;;;;;;5987898;23;20888;-87
2021/12/29 15:35:31;;;;;;;121.30;109.75;;;9.60;99.90;;;;;;5945353;23;20252;-87
2021/12/29 15:38:04;;;;;;;125.75;114.07;;;9.50;99.90;;;;;;6073989;23;20148;-87
2021/12/29 15:41:25;;;;;;;142.95;130.85;;;9.50;99.90;;;;;;6073467;23;20155;-87
2021/12/29 15:46:50;;;;;;;;;;;;;;;;;;;;;
2021/12/29 15:50:22;;;;;;;;;;;;;;;;;;;;;
2021/12/29 15:53:13;;;;;;;97.68;87.15;;;9.50;99.90;;;;;;6130903;23;20178;-85
2021/12/29 15:56:13;;;;;;;99.82;89.22;;;9.50;99.90;;;;;;6138744;23;20156;-85
2021/12/29 15:58:53;;;;;;;;;;;;;;;;;;;;;